OEAAM EDXW-EDXW
Flight info
| Callsign | OEAAM |
|---|---|
| Flight time | 0h 23m |
| Altitude | |
| Route | |
| Aircraft | DA20 |
Departure
| Time | 2026-04-14 12:19 |
|---|---|
| Airport | Westerland Sylt Airport (EDXW) |
Arrival
| Time | 2026-04-14 12:43 |
|---|---|
| Airport | Westerland Sylt Airport (EDXW) |
| Time | Latitude | Longitude | Altitude | Speed | Heading |
|---|---|---|---|---|---|
| 2026-04-14 12:11 | 54.91128 | 8.32705 | 33 ft | 0 kts | 238° |
| 2026-04-14 12:12 | 54.91126 | 8.32702 | 33 ft | 4 kts | 227° |
| 2026-04-14 12:13 | 54.91089 | 8.32738 | 34 ft | 2 kts | 111° |
| 2026-04-14 12:13 | 54.91088 | 8.32742 | 34 ft | 0 kts | 110° |
| 2026-04-14 12:13 | 54.91077 | 8.32804 | 35 ft | 11 kts | 109° |
| 2026-04-14 12:14 | 54.91030 | 8.32959 | 34 ft | 19 kts | 131° |
| 2026-04-14 12:14 | 54.90917 | 8.33139 | 33 ft | 25 kts | 150° |
| 2026-04-14 12:14 | 54.90737 | 8.33214 | 30 ft | 28 kts | 175° |
| 2026-04-14 12:14 | 54.90549 | 8.33254 | 26 ft | 26 kts | 171° |
| 2026-04-14 12:15 | 54.90405 | 8.33357 | 24 ft | 21 kts | 143° |
| 2026-04-14 12:15 | 54.90324 | 8.33502 | 24 ft | 12 kts | 121° |
| 2026-04-14 12:15 | 54.90272 | 8.33665 | 23 ft | 19 kts | 106° |
| 2026-04-14 12:15 | 54.90246 | 8.33912 | 23 ft | 21 kts | 98° |
| 2026-04-14 12:16 | 54.90239 | 8.34158 | 23 ft | 20 kts | 84° |
| 2026-04-14 12:16 | 54.90278 | 8.34372 | 25 ft | 17 kts | 61° |
| 2026-04-14 12:16 | 54.90343 | 8.34531 | 29 ft | 15 kts | 44° |
| 2026-04-14 12:16 | 54.90415 | 8.34648 | 32 ft | 14 kts | 43° |
| 2026-04-14 12:17 | 54.90484 | 8.34760 | 33 ft | 13 kts | 41° |
| 2026-04-14 12:17 | 54.90520 | 8.34815 | 35 ft | 0 kts | 41° |
| 2026-04-14 12:18 | 54.90571 | 8.34894 | 35 ft | 19 kts | 43° |
| 2026-04-14 12:18 | 54.90641 | 8.34893 | 33 ft | 28 kts | 322° |
| 2026-04-14 12:18 | 54.90937 | 8.34540 | 96 ft | 65 kts | 320° |
| 2026-04-14 12:18 | 54.91318 | 8.34078 | 297 ft | 70 kts | 317° |
| 2026-04-14 12:19 | 54.91737 | 8.33603 | 490 ft | 76 kts | 322° |
| 2026-04-14 12:19 | 54.92201 | 8.33111 | 682 ft | 78 kts | 321° |
| 2026-04-14 12:19 | 54.92678 | 8.32669 | 904 ft | 79 kts | 331° |
| 2026-04-14 12:19 | 54.93195 | 8.32344 | 1118 ft | 80 kts | 330° |
| 2026-04-14 12:20 | 54.93732 | 8.32023 | 1256 ft | 87 kts | 339° |
| 2026-04-14 12:20 | 54.94351 | 8.31846 | 1344 ft | 91 kts | 348° |
| 2026-04-14 12:20 | 54.94997 | 8.31882 | 1454 ft | 96 kts | 1° |
| 2026-04-14 12:20 | 54.95650 | 8.32230 | 1567 ft | 100 kts | 12° |
| 2026-04-14 12:21 | 54.96321 | 8.32634 | 1614 ft | 105 kts | 10° |
| 2026-04-14 12:21 | 54.97006 | 8.33032 | 1718 ft | 105 kts | 12° |
| 2026-04-14 12:21 | 54.97665 | 8.33617 | 1815 ft | 107 kts | 22° |
| 2026-04-14 12:21 | 54.98291 | 8.34218 | 1872 ft | 100 kts | 15° |
| 2026-04-14 12:22 | 54.98921 | 8.34692 | 1941 ft | 97 kts | 13° |
| 2026-04-14 12:22 | 54.99543 | 8.35199 | 1965 ft | 100 kts | 14° |
| 2026-04-14 12:22 | 55.00185 | 8.35692 | 1969 ft | 100 kts | 13° |
| 2026-04-14 12:22 | 55.00815 | 8.36190 | 2005 ft | 99 kts | 15° |
| 2026-04-14 12:23 | 55.01449 | 8.36694 | 2019 ft | 101 kts | 15° |
| 2026-04-14 12:23 | 55.02099 | 8.37140 | 2056 ft | 97 kts | 7° |
| 2026-04-14 12:23 | 55.02767 | 8.37451 | 2010 ft | 101 kts | 5° |
| 2026-04-14 12:23 | 55.03449 | 8.37735 | 2028 ft | 98 kts | 5° |
| 2026-04-14 12:24 | 55.04105 | 8.38065 | 2029 ft | 99 kts | 9° |
| 2026-04-14 12:24 | 55.04747 | 8.38523 | 2037 ft | 102 kts | 17° |
| 2026-04-14 12:24 | 55.05359 | 8.39149 | 2073 ft | 103 kts | 23° |
| 2026-04-14 12:24 | 55.05955 | 8.39882 | 2060 ft | 107 kts | 26° |
| 2026-04-14 12:25 | 55.06546 | 8.40703 | 2046 ft | 111 kts | 29° |
| 2026-04-14 12:25 | 55.07152 | 8.41554 | 1984 ft | 113 kts | 31° |
| 2026-04-14 12:25 | 55.07730 | 8.42408 | 2062 ft | 106 kts | 32° |
| 2026-04-14 12:25 | 55.08273 | 8.43314 | 2059 ft | 109 kts | 43° |
| 2026-04-14 12:26 | 55.08539 | 8.44600 | 2054 ft | 120 kts | 80° |
| 2026-04-14 12:26 | 55.08475 | 8.46079 | 2079 ft | 120 kts | 99° |
| 2026-04-14 12:26 | 55.08262 | 8.47491 | 2096 ft | 122 kts | 107° |
| 2026-04-14 12:26 | 55.07977 | 8.48884 | 2125 ft | 122 kts | 111° |
| 2026-04-14 12:27 | 55.07640 | 8.50233 | 2099 ft | 124 kts | 117° |
| 2026-04-14 12:27 | 55.07230 | 8.51579 | 1993 ft | 129 kts | 119° |
| 2026-04-14 12:27 | 55.06785 | 8.52967 | 1851 ft | 132 kts | 120° |
| 2026-04-14 12:27 | 55.06324 | 8.54338 | 1765 ft | 129 kts | 121° |
| 2026-04-14 12:28 | 55.05906 | 8.55669 | 1813 ft | 122 kts | 118° |
| 2026-04-14 12:28 | 55.05551 | 8.56985 | 1862 ft | 119 kts | 116° |
| 2026-04-14 12:28 | 55.05206 | 8.58282 | 1901 ft | 118 kts | 114° |
| 2026-04-14 12:28 | 55.04867 | 8.59590 | 1946 ft | 119 kts | 115° |
| 2026-04-14 12:29 | 55.04466 | 8.60869 | 1975 ft | 121 kts | 126° |
| 2026-04-14 12:29 | 55.03945 | 8.62016 | 2010 ft | 119 kts | 136° |
| 2026-04-14 12:29 | 55.03332 | 8.62969 | 2031 ft | 119 kts | 149° |
| 2026-04-14 12:29 | 55.02629 | 8.63730 | 2047 ft | 119 kts | 158° |
| 2026-04-14 12:30 | 55.01897 | 8.64404 | 2066 ft | 120 kts | 160° |
| 2026-04-14 12:30 | 55.01164 | 8.65133 | 2054 ft | 122 kts | 156° |
| 2026-04-14 12:30 | 55.00409 | 8.65810 | 2024 ft | 123 kts | 163° |
| 2026-04-14 12:30 | 54.99611 | 8.66240 | 2027 ft | 118 kts | 175° |
| 2026-04-14 12:31 | 54.98798 | 8.66569 | 1923 ft | 121 kts | 175° |
| 2026-04-14 12:31 | 54.97997 | 8.66834 | 1933 ft | 115 kts | 181° |
| 2026-04-14 12:31 | 54.97213 | 8.67022 | 1934 ft | 114 kts | 177° |
| 2026-04-14 12:31 | 54.96420 | 8.67140 | 1914 ft | 112 kts | 185° |
| 2026-04-14 12:32 | 54.95660 | 8.67217 | 1995 ft | 107 kts | 184° |
| 2026-04-14 12:32 | 54.95167 | 8.67279 | 1981 ft | 108 kts | 185° |
| 2026-04-14 12:32 | 54.94430 | 8.67368 | 2018 ft | 105 kts | 186° |
| 2026-04-14 12:32 | 54.93713 | 8.67375 | 2063 ft | 102 kts | 192° |
| 2026-04-14 12:33 | 54.93002 | 8.67300 | 2092 ft | 105 kts | 194° |
| 2026-04-14 12:33 | 54.92268 | 8.67175 | 2062 ft | 108 kts | 198° |
| 2026-04-14 12:33 | 54.91515 | 8.66974 | 2024 ft | 108 kts | 198° |
| 2026-04-14 12:33 | 54.90792 | 8.66755 | 2062 ft | 105 kts | 201° |
| 2026-04-14 12:34 | 54.90097 | 8.66462 | 2082 ft | 101 kts | 207° |
| 2026-04-14 12:34 | 54.89445 | 8.66029 | 2065 ft | 100 kts | 217° |
| 2026-04-14 12:34 | 54.88946 | 8.65260 | 2030 ft | 93 kts | 246° |
| 2026-04-14 12:34 | 54.88760 | 8.64193 | 1945 ft | 93 kts | 265° |
| 2026-04-14 12:35 | 54.88656 | 8.63115 | 1951 ft | 88 kts | 266° |
| 2026-04-14 12:35 | 54.88551 | 8.62073 | 1971 ft | 86 kts | 263° |
| 2026-04-14 12:35 | 54.88463 | 8.61063 | 2022 ft | 85 kts | 269° |
| 2026-04-14 12:35 | 54.88469 | 8.60026 | 2021 ft | 88 kts | 274° |
| 2026-04-14 12:36 | 54.88509 | 8.58973 | 2011 ft | 86 kts | 276° |
| 2026-04-14 12:36 | 54.88543 | 8.57959 | 2043 ft | 86 kts | 276° |
| 2026-04-14 12:36 | 54.88581 | 8.56897 | 2014 ft | 89 kts | 276° |
| 2026-04-14 12:36 | 54.88617 | 8.55842 | 2023 ft | 85 kts | 275° |
| 2026-04-14 12:37 | 54.88608 | 8.54819 | 2061 ft | 85 kts | 271° |
| 2026-04-14 12:37 | 54.88590 | 8.53802 | 2096 ft | 84 kts | 272° |
| 2026-04-14 12:37 | 54.88589 | 8.52771 | 2093 ft | 87 kts | 273° |
| 2026-04-14 12:37 | 54.88589 | 8.51711 | 2089 ft | 89 kts | 273° |
| 2026-04-14 12:38 | 54.88663 | 8.49519 | 1960 ft | 95 kts | 275° |
| 2026-04-14 12:38 | 54.88719 | 8.48398 | 1919 ft | 92 kts | 277° |
| 2026-04-14 12:38 | 54.88782 | 8.47315 | 1920 ft | 88 kts | 278° |
| 2026-04-14 12:39 | 54.88881 | 8.46305 | 1952 ft | 85 kts | 282° |
| 2026-04-14 12:39 | 54.89002 | 8.45289 | 1918 ft | 87 kts | 283° |
| 2026-04-14 12:39 | 54.89109 | 8.44229 | 1841 ft | 91 kts | 279° |
| 2026-04-14 12:39 | 54.89200 | 8.43162 | 1843 ft | 85 kts | 279° |
| 2026-04-14 12:40 | 54.89239 | 8.42208 | 1720 ft | 75 kts | 274° |
| 2026-04-14 12:40 | 54.89233 | 8.41342 | 1567 ft | 68 kts | 271° |
| 2026-04-14 12:40 | 54.89223 | 8.40544 | 1408 ft | 65 kts | 272° |
| 2026-04-14 12:40 | 54.89215 | 8.39771 | 1253 ft | 61 kts | 272° |
| 2026-04-14 12:41 | 54.89202 | 8.39065 | 1117 ft | 57 kts | 275° |
| 2026-04-14 12:41 | 54.89242 | 8.38366 | 954 ft | 59 kts | 280° |
| 2026-04-14 12:41 | 54.89319 | 8.37693 | 786 ft | 54 kts | 284° |
| 2026-04-14 12:41 | 54.89455 | 8.37080 | 626 ft | 56 kts | 290° |
| 2026-04-14 12:42 | 54.89662 | 8.36482 | 488 ft | 60 kts | 300° |
| 2026-04-14 12:42 | 54.89909 | 8.35896 | 301 ft | 61 kts | 303° |
| 2026-04-14 12:42 | 54.90238 | 8.35417 | 133 ft | 61 kts | 313° |
| 2026-04-14 12:42 | 54.90553 | 8.35006 | 49 ft | 52 kts | 315° |
| 2026-04-14 12:43 | 54.90792 | 8.34691 | 32 ft | 37 kts | 322° |
| 2026-04-14 12:43 | 54.90990 | 8.34453 | 38 ft | 36 kts | 325° |
| 2026-04-14 12:43 | 54.91206 | 8.34193 | 39 ft | 40 kts | 325° |
| 2026-04-14 12:43 | 54.91286 | 8.33932 | 34 ft | 26 kts | 240° |
| 2026-04-14 12:44 | 54.91188 | 8.33640 | 31 ft | 28 kts | 240° |
| 2026-04-14 12:44 | 54.91094 | 8.33364 | 31 ft | 24 kts | 238° |
| 2026-04-14 12:44 | 54.91008 | 8.33119 | 33 ft | 22 kts | 242° |
| 2026-04-14 12:45 | 54.91105 | 8.32818 | 35 ft | 11 kts | 311° |
| 2026-04-14 12:45 | 54.91154 | 8.32720 | 33 ft | 11 kts | 307° |
| 2026-04-14 12:45 | 54.91203 | 8.32624 | 29 ft | 11 kts | 322° |
| 2026-04-14 12:45 | 54.91233 | 8.32549 | 27 ft | 6 kts | 257° |
| 2026-04-14 12:46 | 54.91227 | 8.32540 | 27 ft | 1 kts | 168° |
| 2026-04-14 12:46 | 54.91224 | 8.32542 | 27 ft | 0 kts | 135° |
| 2026-04-14 12:46 | 54.91222 | 8.32549 | 27 ft | 0 kts | 84° |